createdAt,value
2016-05-12T00:00:35.620Z,50.05
2016-05-12T00:01:35.935Z,50.73
2016-05-12T00:02:35.844Z,50.15
2016-05-12T00:03:35.878Z,50.24
2016-05-12T00:04:35.927Z,50.17
2016-05-12T00:05:35.961Z,50.37
2016-05-12T00:06:35.994Z,50.15
2016-05-12T00:07:36.029Z,50.05
2016-05-12T00:08:36.063Z,50.24
2016-05-12T00:09:36.096Z,50.15
2016-05-12T00:10:36.147Z,49.86
2016-05-12T00:11:36.024Z,50.17
2016-05-12T00:12:36.230Z,49.86
2016-05-12T00:13:36.264Z,50.17
2016-05-12T00:14:36.298Z,49.96
2016-05-12T00:15:36.332Z,50.43
2016-05-12T00:16:36.365Z,50.05
2016-05-12T00:17:36.415Z,50.15
2016-05-12T00:18:36.449Z,49.76
2016-05-12T00:19:36.327Z,49.76
2016-05-12T00:20:36.517Z,49.86
2016-05-12T00:21:36.567Z,49.76
2016-05-12T00:22:36.600Z,49.76
2016-05-12T00:23:36.635Z,49.96
2016-05-12T00:24:36.529Z,50.15
2016-05-12T00:25:36.703Z,49.86
2016-05-12T00:26:36.752Z,49.96
2016-05-12T00:27:36.786Z,49.57
2016-05-12T00:28:36.819Z,49.48
2016-05-12T00:29:36.713Z,49.96
2016-05-12T00:30:36.888Z,50.05
2016-05-12T00:31:36.781Z,49.96
2016-05-12T00:32:36.972Z,49.48
2016-05-12T00:33:37.021Z,50.24
2016-05-12T00:34:36.883Z,49.67
2016-05-12T00:35:37.089Z,49.48
2016-05-12T00:36:37.122Z,49.76
2016-05-12T00:37:37.157Z,49.76
2016-05-12T00:38:37.191Z,49.57
2016-05-12T00:39:37.225Z,49.96
2016-05-12T00:40:37.118Z,49.76
2016-05-12T00:41:37.308Z,49.76
2016-05-12T00:42:37.341Z,49.67
2016-05-12T00:43:37.235Z,49.76
2016-05-12T00:44:37.409Z,50.15
2016-05-12T00:45:37.459Z,49.67
2016-05-12T00:46:37.510Z,49.57
2016-05-12T00:47:37.527Z,49.86
2016-05-12T00:48:37.405Z,49.38
2016-05-12T00:49:37.610Z,49.67
2016-05-12T00:50:37.645Z,49.86
2016-05-12T00:51:37.678Z,49.76
2016-05-12T00:52:37.556Z,49.76
2016-05-12T00:53:37.746Z,49.96
2016-05-12T00:54:37.781Z,49.96
2016-05-12T00:55:37.845Z,49.86
2016-05-12T00:56:37.864Z,50.05
2016-05-12T00:57:37.898Z,50.05
2016-05-12T00:58:37.948Z,50.24
2016-05-12T00:59:37.981Z,49.86
2016-05-12T01:00:37.858Z,50.24
2016-05-12T01:01:38.159Z,49.67
2016-05-12T01:02:38.084Z,49.67
2016-05-12T01:03:38.133Z,49.86
2016-05-12T01:04:38.166Z,49.67
2016-05-12T01:05:38.200Z,50.05
2016-05-12T01:06:38.250Z,49.57
2016-05-12T01:07:38.269Z,50.05
2016-05-12T01:08:38.319Z,50.05
2016-05-12T01:09:38.352Z,50.24
2016-05-12T01:10:38.386Z,50.15
2016-05-12T01:11:38.419Z,50.53
2016-05-12T01:12:38.454Z,50.15
2016-05-12T01:13:38.504Z,49.76
2016-05-12T01:14:38.538Z,50.15
2016-05-12T01:15:38.572Z,50.24
2016-05-12T01:16:38.621Z,50.43
2016-05-12T01:17:38.639Z,49.76
2016-05-12T01:18:38.688Z,49.96
2016-05-12T01:19:38.723Z,49.96
2016-05-12T01:20:38.600Z,49.76
2016-05-12T01:21:38.791Z,50.15
2016-05-12T01:22:38.840Z,51.01
2016-05-12T01:23:38.718Z,50.22
2016-05-12T01:24:38.909Z,50.82
2016-05-12T01:25:38.942Z,50.7
2016-05-12T01:26:38.992Z,50.63
2016-05-12T01:27:39.041Z,50.34
2016-05-12T01:28:39.059Z,50.6
2016-05-12T01:29:39.109Z,50.73
2016-05-12T01:30:39.128Z,50.53
2016-05-12T01:31:39.177Z,50.53
2016-05-12T01:32:39.039Z,50.32
2016-05-12T01:33:39.244Z,50.7
2016-05-12T01:34:39.278Z,51.1
2016-05-12T01:35:39.328Z,51.28
2016-05-12T01:36:39.191Z,50.99
2016-05-12T01:37:39.397Z,51.18
2016-05-12T01:38:39.430Z,51.75
2016-05-12T01:39:39.464Z,51.56
2016-05-12T01:40:39.497Z,51.46
2016-05-12T01:41:39.533Z,51.65
2016-05-12T01:42:39.582Z,51.46
2016-05-12T01:43:39.459Z,51.75
2016-05-12T01:44:39.493Z,51.65
2016-05-12T01:45:39.699Z,51.65
2016-05-12T01:46:40.139Z,51.56
2016-05-12T01:47:39.766Z,51.46
2016-05-12T01:48:39.801Z,51.46
2016-05-12T01:49:39.835Z,51.85
2016-05-12T01:50:39.712Z,51.28
2016-05-12T01:51:39.762Z,51.56
2016-05-12T01:52:39.780Z,51.75
2016-05-12T01:53:39.829Z,51.65
2016-05-12T01:54:40.020Z,52.14
2016-05-12T01:55:40.054Z,52.33
2016-05-12T01:56:39.932Z,52.23
2016-05-12T01:57:40.122Z,52.52
2016-05-12T01:58:40.171Z,52.23
2016-05-12T01:59:40.206Z,52.81
2016-05-12T02:00:40.239Z,52.42
2016-05-12T02:01:40.585Z,52.87
2016-05-12T02:02:40.306Z,53.19
2016-05-12T02:03:40.342Z,53.28
2016-05-12T02:04:40.391Z,53.38
2016-05-12T02:05:40.424Z,53.26
2016-05-12T02:06:40.458Z,53.28
2016-05-12T02:07:40.492Z,53.28
2016-05-12T02:08:40.386Z,53.26
2016-05-12T02:09:40.575Z,53.07
2016-05-12T02:10:40.610Z,53.38
2016-05-12T02:11:40.644Z,53.55
2016-05-12T02:12:40.677Z,53.45
2016-05-12T02:13:40.711Z,53.19
2016-05-12T02:14:40.589Z,53.28
2016-05-12T02:15:40.795Z,52.91
2016-05-12T02:16:40.877Z,53.64
2016-05-12T02:17:40.863Z,53.83
2016-05-12T02:18:40.756Z,53.45
2016-05-12T02:19:40.932Z,53.83
2016-05-12T02:20:40.965Z,53.55
2016-05-12T02:21:41.015Z,53.74
2016-05-12T02:22:41.048Z,54.03
2016-05-12T02:23:41.082Z,54.22
2016-05-12T02:24:41.116Z,54.22
2016-05-12T02:25:41.166Z,54.7
2016-05-12T02:26:41.200Z,54.6
2016-05-12T02:27:41.234Z,54.41
2016-05-12T02:28:41.267Z,54.6
2016-05-12T02:29:41.301Z,54.41
2016-05-12T02:30:41.351Z,54.6
2016-05-12T02:31:41.385Z,54.79
2016-05-12T02:32:41.420Z,54.32
2016-05-12T02:33:41.453Z,54.79
2016-05-12T02:34:41.502Z,55.18
2016-05-12T02:35:41.537Z,54.99
2016-05-12T02:36:41.602Z,55.56
2016-05-12T02:37:41.604Z,55.75
2016-05-12T02:38:41.748Z,55.46
2016-05-12T02:39:41.672Z,55.65
2016-05-12T02:40:41.722Z,55.46
2016-05-12T02:41:41.741Z,55.94
2016-05-12T02:42:41.789Z,55.94
2016-05-12T02:43:41.808Z,56.04
2016-05-12T02:44:41.857Z,55.94
2016-05-12T02:45:41.891Z,56.04
2016-05-12T02:46:41.925Z,56.32
2016-05-12T02:47:41.819Z,56.52
2016-05-12T02:48:42.009Z,56.9
2016-05-12T02:49:56.199Z,56.52
2016-05-12T02:50:42.077Z,56.9
2016-05-12T02:51:42.111Z,56.9
2016-05-12T02:52:42.145Z,57.19
2016-05-12T02:53:42.194Z,57.09
2016-05-12T02:54:42.071Z,57.09
2016-05-12T02:55:42.262Z,57.67
2016-05-12T02:56:42.295Z,57.67
2016-05-12T02:57:42.329Z,57.67
2016-05-12T02:58:42.365Z,57.48
2016-05-12T02:59:42.398Z,58.15
2016-05-12T03:00:42.448Z,58.31
2016-05-12T03:01:42.544Z,58.53
2016-05-12T03:02:42.515Z,58.15
2016-05-12T03:03:42.549Z,58.05
2016-05-12T03:04:42.584Z,57.95
2016-05-12T03:05:42.617Z,58.22
2016-05-12T03:06:42.667Z,58.59
2016-05-12T03:07:42.700Z,58.69
2016-05-12T03:08:42.734Z,58.79
2016-05-12T03:09:42.612Z,58.69
2016-05-12T03:10:42.647Z,58.79
2016-05-12T03:11:42.680Z,59.27
2016-05-12T03:12:42.870Z,59.36
2016-05-12T03:13:42.920Z,59.36
2016-05-12T03:14:42.954Z,58.88
2016-05-12T03:15:42.988Z,58.98
2016-05-12T03:16:42.896Z,59.75
2016-05-12T03:17:43.056Z,59.17
2016-05-12T03:18:43.105Z,59.84
2016-05-12T03:19:42.983Z,59.36
2016-05-12T03:20:43.174Z,59.27
2016-05-12T03:21:43.207Z,59.27
2016-05-12T03:22:43.256Z,59.27
2016-05-12T03:23:43.274Z,59.84
2016-05-12T03:24:43.309Z,59.45
2016-05-12T03:25:43.343Z,59.65
2016-05-12T03:26:43.392Z,59.94
2016-05-12T03:27:43.426Z,59.55
2016-05-12T03:28:43.304Z,59.65
2016-05-12T03:29:43.494Z,60.03
2016-05-12T03:30:43.528Z,60.13
2016-05-12T03:31:43.578Z,60.41
2016-05-12T03:32:43.612Z,59.94
2016-05-12T03:33:43.645Z,59.94
2016-05-12T03:34:43.679Z,60.22
2016-05-12T03:35:43.713Z,60.22
2016-05-12T03:36:43.747Z,60.41
2016-05-12T03:37:43.781Z,60.32
2016-05-12T03:38:43.831Z,60.22
2016-05-12T03:39:43.865Z,60.22
2016-05-12T03:40:43.899Z,60.61
2016-05-12T03:41:43.932Z,60.8
2016-05-12T03:42:43.966Z,60.7
2016-05-12T03:43:44.016Z,60.61
2016-05-12T03:44:44.050Z,60.61
2016-05-12T03:45:43.927Z,60.51
2016-05-12T03:46:44.118Z,60.89
2016-05-12T03:47:44.011Z,60.8
2016-05-12T03:48:44.030Z,60.61
2016-05-12T03:49:44.235Z,60.8
2016-05-12T03:50:44.254Z,61.08
2016-05-12T03:51:44.304Z,60.8
2016-05-12T03:52:44.338Z,60.51
2016-05-12T03:53:44.371Z,60.51
2016-05-12T03:54:44.405Z,60.8
2016-05-12T03:55:44.454Z,60.41
2016-05-12T03:56:44.488Z,60.89
2016-05-12T03:57:44.538Z,60.7
2016-05-12T03:58:44.416Z,60.8
2016-05-12T03:59:44.435Z,60.41
2016-05-12T04:00:44.640Z,60.51
2016-05-12T04:01:45.018Z,60.8
2016-05-12T04:02:44.708Z,60.89
2016-05-12T04:03:44.742Z,60.8
2016-05-12T04:04:44.776Z,60.99
2016-05-12T04:05:44.810Z,61.28
2016-05-12T04:06:44.844Z,61.28
2016-05-12T04:07:44.878Z,61.18
2016-05-12T04:08:44.927Z,61.37
2016-05-12T04:09:44.961Z,61.18
2016-05-12T04:10:44.839Z,61.37
2016-05-12T04:11:44.873Z,61.37
2016-05-12T04:12:45.063Z,61.47
2016-05-12T04:13:45.113Z,61.66
2016-05-12T04:14:45.130Z,61.85
2016-05-12T04:15:45.180Z,61.85
2016-05-12T04:16:45.230Z,62.04
2016-05-12T04:17:45.248Z,62.04
2016-05-12T04:18:45.298Z,62.33
2016-05-12T04:19:45.316Z,62.04
2016-05-12T04:20:45.366Z,62.04
2016-05-12T04:21:45.399Z,61.76
2016-05-12T04:22:45.433Z,61.94
2016-05-12T04:23:45.467Z,61.28
2016-05-12T04:24:45.501Z,60.89
2016-05-12T04:25:45.535Z,59.77
2016-05-12T04:26:45.585Z,59.11
2016-05-12T04:27:45.618Z,58.81
2016-05-12T04:28:45.653Z,58.37
2016-05-12T04:29:45.531Z,57.7
2016-05-12T04:30:45.721Z,56.57
2016-05-12T04:31:45.614Z,56.38
2016-05-12T04:32:45.804Z,55.42
2016-05-12T04:33:45.838Z,55.55
2016-05-12T04:34:45.872Z,55.52
2016-05-12T04:35:45.922Z,55.52
2016-05-12T04:36:45.939Z,54.94
2016-05-12T04:37:45.990Z,54.58
2016-05-12T04:38:46.009Z,54.78
2016-05-12T04:39:46.042Z,54.58
2016-05-12T04:40:46.091Z,54.78
2016-05-12T04:41:45.969Z,54.58
2016-05-12T04:42:46.158Z,54.01
2016-05-12T04:43:46.194Z,53.36
2016-05-12T04:44:46.243Z,53.66
2016-05-12T04:45:46.277Z,54.01
2016-05-12T04:46:46.311Z,53.63
2016-05-12T04:47:46.344Z,54.58
2016-05-12T04:48:46.378Z,55.64
2016-05-12T04:49:46.271Z,56.76
2016-05-12T04:50:46.463Z,57.5
2016-05-12T04:51:46.496Z,57.5
2016-05-12T04:52:46.374Z,58.08
2016-05-12T04:53:46.407Z,58.08
2016-05-12T04:54:46.598Z,57.98
2016-05-12T04:55:46.647Z,58.37
2016-05-12T04:56:46.682Z,58.08
2016-05-12T04:57:46.715Z,57.79
2016-05-12T04:58:46.749Z,57.7
2016-05-12T04:59:46.799Z,57.41
2016-05-12T05:00:46.832Z,57.89
2016-05-12T05:01:46.960Z,57.6
2016-05-12T05:02:46.900Z,57.41
2016-05-12T05:03:46.935Z,57.7
2016-05-12T05:04:46.984Z,57.6
2016-05-12T05:05:47.018Z,57.12
2016-05-12T05:06:47.052Z,56.93
2016-05-12T05:07:46.929Z,56.74
2016-05-12T05:08:47.136Z,56.83
2016-05-12T05:09:47.169Z,56.96
2016-05-12T05:10:47.203Z,56.45
2016-05-12T05:11:47.237Z,56.45
2016-05-12T05:12:47.287Z,55.8
2016-05-12T05:13:47.320Z,56.09
2016-05-12T05:14:47.370Z,55.62
2016-05-12T05:15:47.388Z,55.8
2016-05-12T05:16:47.438Z,55.62
2016-05-12T05:17:47.472Z,55.8
2016-05-12T05:18:47.506Z,55.8
2016-05-12T05:19:47.540Z,54.39
2016-05-12T05:20:47.418Z,54.49
2016-05-12T05:21:47.608Z,54.88
2016-05-12T05:22:47.485Z,54.66
2016-05-12T05:23:47.708Z,54.49
2016-05-12T05:24:47.741Z,54.3
2016-05-12T05:25:47.760Z,54.49
2016-05-12T05:26:47.793Z,54.78
2016-05-12T05:27:47.843Z,54.58
2016-05-12T05:28:47.876Z,54.39
2016-05-12T05:29:47.754Z,53.82
2016-05-12T05:30:47.945Z,54.21
2016-05-12T05:31:47.854Z,54.39
2016-05-12T05:32:48.043Z,53.82
2016-05-12T05:33:48.062Z,53.53
2016-05-12T05:34:48.096Z,53.34
2016-05-12T05:35:48.145Z,53.63
2016-05-12T05:36:48.195Z,53.15
2016-05-12T05:37:48.213Z,53.05
2016-05-12T05:38:48.263Z,53.44
2016-05-12T05:39:48.282Z,52.86
2016-05-12T05:40:48.331Z,52.48
2016-05-12T05:41:48.365Z,52.5
2016-05-12T05:42:48.414Z,51.83
2016-05-12T05:43:48.291Z,51.83
2016-05-12T05:44:48.483Z,51.54
2016-05-12T05:45:48.360Z,50.87
2016-05-12T05:46:48.972Z,50.8
2016-05-12T05:47:48.600Z,50.9
2016-05-12T05:48:48.633Z,50.9
2016-05-12T05:49:48.667Z,50.32
2016-05-12T05:50:48.717Z,50.51
2016-05-12T05:51:48.751Z,51.09
2016-05-12T05:52:48.785Z,50.23
2016-05-12T05:53:48.818Z,50.13
2016-05-12T05:54:48.868Z,50.8
2016-05-12T05:55:48.903Z,50.7
2016-05-12T05:56:48.936Z,50.8
2016-05-12T05:57:48.985Z,50.7
2016-05-12T05:58:48.863Z,50.9
2016-05-12T05:59:48.898Z,50.8
2016-05-12T06:00:49.104Z,49.91
2016-05-12T06:01:49.153Z,50.23
2016-05-12T06:02:49.187Z,50.51
2016-05-12T06:03:49.205Z,50.61
2016-05-12T06:04:49.240Z,50.1
2016-05-12T06:05:49.132Z,50.1
2016-05-12T06:06:49.338Z,49.93
2016-05-12T06:07:49.356Z,49.91
2016-05-12T06:08:49.406Z,49.55
2016-05-12T06:09:49.439Z,49.55
2016-05-12T06:10:49.490Z,49.93
2016-05-12T06:11:49.523Z,49.36
2016-05-12T06:12:49.573Z,48.97
2016-05-12T06:13:49.591Z,49.46
2016-05-12T06:14:49.641Z,49.36
2016-05-12T06:15:49.675Z,49.36
2016-05-12T06:16:50.022Z,48.97
2016-05-12T06:17:49.742Z,49.07
2016-05-12T06:18:49.792Z,48.49
2016-05-12T06:19:49.670Z,48.4
2016-05-12T06:20:49.860Z,47.85
2016-05-12T06:21:49.910Z,48.21
2016-05-12T06:22:49.928Z,48.3
2016-05-12T06:23:49.977Z,48.21
2016-05-12T06:24:50.027Z,48.69
2016-05-12T06:25:50.077Z,48.02
2016-05-12T06:26:50.096Z,47.56
2016-05-12T06:27:49.973Z,47.66
2016-05-12T06:28:50.163Z,47.85
2016-05-12T06:29:50.197Z,47.66
2016-05-12T06:30:50.090Z,47.27
2016-05-12T06:31:50.796Z,47.44
2016-05-12T06:32:50.314Z,47.85
2016-05-12T06:33:50.365Z,47.85
2016-05-12T06:34:50.288Z,46.31
2016-05-12T06:35:50.431Z,45.92
2016-05-12T06:36:50.482Z,46.5
2016-05-12T06:37:50.359Z,46.12
2016-05-12T06:38:50.549Z,46.41
2016-05-12T06:39:50.599Z,45.95
2016-05-12T06:40:50.634Z,46.62
2016-05-12T06:41:50.667Z,45.95
2016-05-12T06:42:50.701Z,45.66
2016-05-12T06:43:50.750Z,46.04
2016-05-12T06:44:50.784Z,44.79
2016-05-12T06:45:50.850Z,44.89
2016-05-12T06:46:50.883Z,44.6
2016-05-12T06:47:50.886Z,44.89
2016-05-12T06:48:50.950Z,44.6
2016-05-12T06:49:51.012Z,44.91
2016-05-12T06:50:51.105Z,44.6
2016-05-12T06:51:51.025Z,44.6
2016-05-12T06:52:51.258Z,44.7
2016-05-12T06:53:51.351Z,44.6
2016-05-12T06:54:51.401Z,43.74
2016-05-12T06:55:51.451Z,44.02
2016-05-12T06:56:51.499Z,44.41
2016-05-12T06:57:51.408Z,44.31
2016-05-12T06:58:51.457Z,44.12
2016-05-12T06:59:51.699Z,43.93
2016-05-12T07:00:51.708Z,44.7
2016-05-12T07:01:51.762Z,44.89
2016-05-12T07:02:51.787Z,44.79
2016-05-12T07:03:51.684Z,44.02
2016-05-12T07:04:51.877Z,43.95
2016-05-12T07:05:51.929Z,44.24
2016-05-12T07:06:51.809Z,43.47
2016-05-12T07:07:52.000Z,43.85
2016-05-12T07:08:52.037Z,43.76
2016-05-12T07:09:51.931Z,42.89
2016-05-12T07:10:52.122Z,43.37
2016-05-12T07:11:52.156Z,43.28
2016-05-12T07:12:52.190Z,42.89
2016-05-12T07:13:52.225Z,43.47
2016-05-12T07:14:52.275Z,43.66
2016-05-12T07:15:52.310Z,43.2
2016-05-12T07:16:52.203Z,42.99
2016-05-12T07:17:52.237Z,42.53
2016-05-12T07:18:52.444Z,42.91
2016-05-12T07:19:52.478Z,43.08
2016-05-12T07:20:52.511Z,43.2
2016-05-12T07:21:52.389Z,41.86
2016-05-12T07:22:52.580Z,42.72
2016-05-12T07:23:52.473Z,42.72
2016-05-12T07:24:52.679Z,42.05
2016-05-12T07:25:52.697Z,42.24
2016-05-12T07:26:52.746Z,42.53
2016-05-12T07:27:52.781Z,42.24
2016-05-12T07:28:52.830Z,42.72
2016-05-12T07:29:52.864Z,41.76
2016-05-12T07:30:52.914Z,41.39
2016-05-12T07:31:53.041Z,40.8
2016-05-12T07:32:52.982Z,41.56
2016-05-12T07:33:53.031Z,41.38
2016-05-12T07:34:53.065Z,41.3
2016-05-12T07:35:53.099Z,41.49
2016-05-12T07:36:52.977Z,41.59
2016-05-12T07:37:53.198Z,41.3
2016-05-12T07:38:53.216Z,41.49
2016-05-12T07:39:53.251Z,42.36
2016-05-12T07:40:53.300Z,40.81
2016-05-12T07:41:53.177Z,40.91
2016-05-12T07:42:53.384Z,41.3
2016-05-12T07:43:53.417Z,41.39
2016-05-12T07:44:53.452Z,40.63
2016-05-12T07:45:53.485Z,39.68
2016-05-12T07:46:53.535Z,39.87
2016-05-12T07:47:53.568Z,38.74
2016-05-12T07:48:53.618Z,37.7
2016-05-12T07:49:53.496Z,37.48
2016-05-12T07:50:53.701Z,35.96
2016-05-12T07:51:53.580Z,33.2
2016-05-12T07:52:53.770Z,32.38
2016-05-12T07:53:53.804Z,31.52
2016-05-12T07:54:53.837Z,30.96
2016-05-12T07:55:53.887Z,29.24
2016-05-12T07:56:53.922Z,30.88
2016-05-12T07:57:53.970Z,30.18
2016-05-12T07:58:54.020Z,29.03
2016-05-12T07:59:54.054Z,29.52
2016-05-12T08:00:54.103Z,30.68
2016-05-12T08:01:54.138Z,33.05
2016-05-12T08:02:54.188Z,31.86
2016-05-12T08:03:54.236Z,30.55
2016-05-12T08:04:54.271Z,29.13
2016-05-12T08:05:54.352Z,27.71
2016-05-12T08:06:54.370Z,28.32
2016-05-12T08:07:54.404Z,30.99
2016-05-12T08:08:54.437Z,31.7
2016-05-12T08:09:54.488Z,32.09
2016-05-12T08:10:54.522Z,32.41
2016-05-12T08:11:54.415Z,32.26
2016-05-12T08:12:54.621Z,31.13
2016-05-12T08:13:54.670Z,29.13
2016-05-12T08:14:54.720Z,28.19
2016-05-12T08:15:54.754Z,28.59
2016-05-12T08:16:54.662Z,29.16
2016-05-12T08:17:54.682Z,30.1
2016-05-12T08:18:54.887Z,30.2
2016-05-12T08:19:54.936Z,30.57
2016-05-12T08:20:54.971Z,29.99
2016-05-12T08:21:55.020Z,29.6
2016-05-12T08:22:55.069Z,29.24
2016-05-12T08:23:55.119Z,30.58
2016-05-12T08:24:55.153Z,30.28
2016-05-12T08:25:55.217Z,29.03
2016-05-12T08:26:55.252Z,29.63
2016-05-12T08:27:55.301Z,28.47
2016-05-12T08:28:55.335Z,28.09
2016-05-12T08:29:55.385Z,28.69
2016-05-12T08:30:55.278Z,26.95
2016-05-12T08:31:55.328Z,26.29
2016-05-12T08:32:55.534Z,27.08
2016-05-12T08:33:55.568Z,28.13
2016-05-12T08:34:55.633Z,26.96
2016-05-12T08:35:55.683Z,28.43
2016-05-12T08:36:55.700Z,27.07
2016-05-12T08:37:55.750Z,26.21
2016-05-12T08:38:55.800Z,24.88
2016-05-12T08:39:55.849Z,25.87
2016-05-12T08:40:55.899Z,25.54
2016-05-12T08:41:55.948Z,25.75
2016-05-12T08:42:55.998Z,24.77
2016-05-12T08:43:56.032Z,24.21
2016-05-12T08:44:56.082Z,23.44
2016-05-12T08:45:56.131Z,26.34
2016-05-12T08:46:56.352Z,28.13
2016-05-12T08:47:56.230Z,29.05
2016-05-12T08:48:56.279Z,28.86
2016-05-12T08:49:56.329Z,28.97
2016-05-12T08:50:56.363Z,27.51
2016-05-12T08:51:56.272Z,26.67
2016-05-12T08:52:56.462Z,26.89
2016-05-12T08:53:56.512Z,27.56
2016-05-12T08:54:56.561Z,26.86
2016-05-12T08:55:56.612Z,27.84
2016-05-12T08:56:56.661Z,27.73
2016-05-12T08:57:56.710Z,27.46
2016-05-12T08:58:56.760Z,27.54
2016-05-12T08:59:56.809Z,27.64
2016-05-12T09:00:56.843Z,26.97
2016-05-12T09:01:56.893Z,27.08
2016-05-12T09:02:56.958Z,29.48
2016-05-12T09:03:56.992Z,29.46
2016-05-12T09:04:57.041Z,29.55
2016-05-12T09:05:57.091Z,29.44
2016-05-12T09:06:57.125Z,29.06
2016-05-12T09:07:57.190Z,29.91
2016-05-12T09:08:58.411Z,30.31
2016-05-12T09:09:57.274Z,28.68
2016-05-12T09:10:57.339Z,27.72
2016-05-12T09:11:57.216Z,29.64
2016-05-12T09:12:57.422Z,29.63
2016-05-12T09:13:57.456Z,28.49
2016-05-12T09:14:57.507Z,29.16
2016-05-12T09:15:57.555Z,30.02
2016-05-12T09:16:57.480Z,30.39
2016-05-12T09:17:57.655Z,32.12
2016-05-12T09:18:57.704Z,32.18
2016-05-12T09:19:57.738Z,30.75
2016-05-12T09:20:57.788Z,31.25
2016-05-12T09:21:57.837Z,30.58
2016-05-12T09:22:57.887Z,30.51
2016-05-12T09:23:57.936Z,29.06
2016-05-12T09:24:57.986Z,27.82
2016-05-12T09:25:58.020Z,26.98
2016-05-12T09:26:58.069Z,27.11
2016-05-12T09:27:58.119Z,25.93
2016-05-12T09:28:58.012Z,25.35
2016-05-12T09:29:58.218Z,25.18
2016-05-12T09:30:58.267Z,28.14
2016-05-12T09:31:58.380Z,29.17
2016-05-12T09:32:58.351Z,29.37
2016-05-12T09:33:58.400Z,29.83
2016-05-12T09:34:58.450Z,28.19
2016-05-12T09:35:59.953Z,26.5
2016-05-12T09:36:58.894Z,25.36
2016-05-12T09:37:58.599Z,26.14
2016-05-12T09:38:58.633Z,26.59
2016-05-12T09:39:58.527Z,26.5
2016-05-12T09:40:58.591Z,25.36
2016-05-12T09:41:58.797Z,25.19
2016-05-12T09:42:58.831Z,26.06
2016-05-12T09:43:58.880Z,27
2016-05-12T09:44:58.930Z,28.23
2016-05-12T09:45:59.932Z,28.5
2016-05-12T09:46:59.639Z,28.79
2016-05-12T09:47:59.079Z,28.4
2016-05-12T09:48:59.113Z,27.83
2016-05-12T09:49:59.163Z,27.07
2016-05-12T09:50:59.212Z,28.72
2016-05-12T09:51:59.262Z,26.96
2016-05-12T09:52:59.311Z,26.9
2016-05-12T09:53:59.376Z,26.81
2016-05-12T09:55:00.692Z,26.98
2016-05-12T09:55:59.460Z,27.56
2016-05-12T09:56:59.353Z,29.19
2016-05-12T09:57:59.403Z,29.36
2016-05-12T09:58:59.608Z,29.26
2016-05-12T09:59:59.642Z,28.22
2016-05-12T10:00:59.692Z,28.34
2016-05-12T10:02:00.053Z,28.72
2016-05-12T10:02:59.792Z,28.63
2016-05-12T10:03:59.685Z,27.46
2016-05-12T10:04:59.891Z,27.96
2016-05-12T10:05:59.940Z,26.79
2016-05-12T10:06:59.989Z,25.36
2016-05-12T10:08:00.039Z,26.07
2016-05-12T10:09:00.073Z,28.15
2016-05-12T10:10:00.122Z,26.87
2016-05-12T10:11:00.172Z,27.1
2016-05-12T10:12:00.221Z,27.93
2016-05-12T10:13:00.130Z,27.83
2016-05-12T10:14:00.165Z,27.26
2016-05-12T10:15:00.370Z,29.28
2016-05-12T10:16:00.420Z,30.99
2016-05-12T10:17:00.469Z,30.76
2016-05-12T10:18:00.519Z,31.15
2016-05-12T10:19:00.569Z,32.12
2016-05-12T10:20:00.618Z,30.57
2016-05-12T10:21:00.668Z,28.96
2016-05-12T10:22:00.717Z,30.71
2016-05-12T10:23:00.752Z,30.49
2016-05-12T10:24:00.801Z,30.11
2016-05-12T10:25:00.851Z,30.52
2016-05-12T10:26:00.900Z,30.69
2016-05-12T10:27:00.965Z,29.94
2016-05-12T10:28:00.999Z,28.22
2016-05-12T10:29:01.033Z,27.47
2016-05-12T10:30:01.098Z,26.62
2016-05-12T10:31:01.131Z,27.4
2016-05-12T10:32:01.259Z,29.11
2016-05-12T10:33:01.248Z,28.51
2016-05-12T10:34:01.296Z,27.76
2016-05-12T10:35:01.346Z,27.1
2016-05-12T10:36:01.380Z,27.01
2016-05-12T10:37:01.430Z,27.78
2016-05-12T10:38:01.480Z,27.58
2016-05-12T10:39:01.544Z,28.53
2016-05-12T10:40:01.578Z,30.55
2016-05-12T10:41:01.627Z,30.04
2016-05-12T10:42:01.521Z,29.94
2016-05-12T10:43:01.711Z,29.34
2016-05-12T10:44:01.777Z,29.36
2016-05-12T10:45:01.857Z,28.23
2016-05-12T10:46:01.876Z,29.3
2016-05-12T10:47:02.707Z,32.15
2016-05-12T10:48:01.819Z,32.51
2016-05-12T10:49:02.009Z,30.79
2016-05-12T10:50:02.057Z,31.94
2016-05-12T10:51:02.108Z,30.6
2016-05-12T10:52:02.174Z,29.28
2016-05-12T10:53:02.207Z,28.9
2016-05-12T10:54:02.257Z,27.94
2016-05-12T10:55:02.337Z,27
2016-05-12T10:56:02.356Z,28.54
2016-05-12T10:57:02.406Z,28.34
2016-05-12T10:58:02.455Z,28.64
2016-05-12T10:59:02.489Z,28.53
2016-05-12T11:00:02.381Z,29.58
2016-05-12T11:01:02.603Z,29.84
2016-05-12T11:02:03.060Z,30.23
2016-05-12T11:03:02.702Z,31.37
2016-05-12T11:04:02.752Z,31.94
2016-05-12T11:05:02.786Z,30.68
2016-05-12T11:06:02.680Z,29.83
2016-05-12T11:07:02.886Z,28.87
2016-05-12T11:08:02.936Z,28.61
2016-05-12T11:09:02.983Z,29.38
2016-05-12T11:10:03.034Z,29.47
2016-05-12T11:11:03.084Z,29.47
2016-05-12T11:12:02.961Z,29.1
2016-05-12T11:13:03.167Z,27.96
2016-05-12T11:14:03.216Z,29.14
2016-05-12T11:15:03.266Z,29.47
2016-05-12T11:16:03.316Z,30.23
2016-05-12T11:17:03.396Z,31.37
2016-05-12T11:18:03.415Z,32.33
2016-05-12T11:19:03.465Z,32.12
2016-05-12T11:20:03.529Z,30.78
2016-05-12T11:21:03.563Z,30.79
2016-05-12T11:22:03.613Z,32.23
2016-05-12T11:23:03.662Z,32.02
2016-05-12T11:24:03.712Z,30.57
2016-05-12T11:25:03.762Z,29.91
2016-05-12T11:26:03.796Z,30.49
2016-05-12T11:27:03.845Z,31.86
2016-05-12T11:28:03.895Z,31.07
2016-05-12T11:29:03.945Z,31.37
2016-05-12T11:30:03.979Z,30.99
2016-05-12T11:31:04.043Z,30.31
2016-05-12T11:32:03.936Z,28.98
2016-05-12T11:33:04.143Z,28.41
2016-05-12T11:34:04.176Z,27.84
2016-05-12T11:35:04.241Z,29.77
2016-05-12T11:36:04.276Z,29.46
2016-05-12T11:37:04.169Z,28.58
2016-05-12T11:38:04.359Z,28.39
2016-05-12T11:39:04.424Z,27.92
2016-05-12T11:40:04.475Z,28.22
2016-05-12T11:41:04.508Z,29.1
2016-05-12T11:42:04.401Z,29.46
2016-05-12T11:43:04.608Z,28.68
2016-05-12T11:44:04.657Z,29.27
2016-05-12T11:45:04.691Z,29.38
2016-05-12T11:46:04.756Z,29.36
2016-05-12T11:47:04.805Z,30.11
2016-05-12T11:48:04.839Z,30.76
2016-05-12T11:49:04.748Z,29.52
2016-05-12T11:50:04.783Z,28.38
2016-05-12T11:51:04.988Z,27.03
2016-05-12T11:52:05.037Z,25.6
2016-05-12T11:53:05.071Z,24.93
2016-05-12T11:54:04.980Z,25.32
2016-05-12T11:55:05.187Z,24.08
2016-05-12T11:56:05.220Z,23.24
2016-05-12T11:57:05.332Z,23.35
2016-05-12T11:58:05.320Z,24.21
2016-05-12T11:59:05.462Z,24.88
2016-05-12T12:00:05.434Z,26.43
2016-05-12T12:01:05.468Z,26.6
2016-05-12T12:02:05.987Z,27.08
2016-05-12T12:03:05.568Z,28.53
2016-05-12T12:04:05.617Z,28.2
2016-05-12T12:05:05.509Z,27.51
2016-05-12T12:06:05.716Z,27.24
2016-05-12T12:07:05.750Z,26.48
2016-05-12T12:08:05.814Z,27.25
2016-05-12T12:09:05.881Z,26.1
2016-05-12T12:10:05.742Z,24.57
2016-05-12T12:11:05.963Z,24.61
2016-05-12T12:12:06.013Z,26.17
2016-05-12T12:13:06.047Z,27.08
2016-05-12T12:14:06.096Z,27.37
2016-05-12T12:15:06.146Z,28.2
2016-05-12T12:16:06.196Z,28.66
2016-05-12T12:17:06.246Z,27.14
2016-05-12T12:18:06.295Z,25.24
2016-05-12T12:19:06.344Z,24.29
2016-05-12T12:20:06.394Z,23.9
2016-05-12T12:21:06.287Z,23.43
2016-05-12T12:22:06.494Z,23.25
2016-05-12T12:23:06.558Z,25.47
2016-05-12T12:24:06.436Z,26.68
2016-05-12T12:25:06.642Z,26.95
2016-05-12T12:26:06.691Z,27.25
2016-05-12T12:27:06.741Z,26.57
2016-05-12T12:28:06.790Z,25.81
2016-05-12T12:29:06.824Z,24.48
2016-05-12T12:30:06.889Z,24.1
2016-05-12T12:31:06.923Z,23.91
2016-05-12T12:32:07.005Z,23.84
2016-05-12T12:33:07.039Z,23.05
2016-05-12T12:34:07.087Z,22.27
2016-05-12T12:35:07.137Z,22.28
2016-05-12T12:36:07.015Z,22.69
2016-05-12T12:37:07.237Z,23.45
2016-05-12T12:38:07.271Z,24.41
2016-05-12T12:39:07.336Z,23.52
2016-05-12T12:40:07.386Z,22.97
2016-05-12T12:41:07.436Z,23.25
2016-05-12T12:42:07.484Z,24.41
2016-05-12T12:43:07.534Z,25.64
2016-05-12T12:44:07.583Z,27.17
2016-05-12T12:45:07.664Z,27.93
2016-05-12T12:46:07.683Z,28.58
2016-05-12T12:47:07.747Z,28.28
2016-05-12T12:48:07.782Z,27.82
2016-05-12T12:49:07.831Z,28.58
2016-05-12T12:50:07.881Z,28.09
2016-05-12T12:51:07.930Z,27.82
2016-05-12T12:52:07.980Z,26.86
2016-05-12T12:53:08.030Z,26.68
2016-05-12T12:54:08.079Z,25.34
2016-05-12T12:55:08.113Z,24
2016-05-12T12:56:08.179Z,24.51